sensor_id;sensor_type;location;lat;lon;timestamp;P1;durP1;ratioP1;P2;durP2;ratioP2
15356;SDS011;7778;48.792;9.260;2022-12-18T00:00:00;16.23;;;10.13;;
15356;SDS011;7778;48.792;9.260;2022-12-18T00:02:46;14.83;;;8.20;;
15356;SDS011;7778;48.792;9.260;2022-12-18T00:05:31;15.70;;;7.67;;
15356;SDS011;7778;48.792;9.260;2022-12-18T00:08:17;15.97;;;6.47;;
15356;SDS011;7778;48.792;9.260;2022-12-18T00:11:03;26.67;;;11.40;;
15356;SDS011;7778;48.792;9.260;2022-12-18T00:13:51;23.83;;;11.50;;
15356;SDS011;7778;48.792;9.260;2022-12-18T00:16:39;24.43;;;12.87;;
15356;SDS011;7778;48.792;9.260;2022-12-18T00:19:28;28.30;;;12.83;;
15356;SDS011;7778;48.792;9.260;2022-12-18T00:22:14;21.27;;;8.57;;
15356;SDS011;7778;48.792;9.260;2022-12-18T00:25:03;17.43;;;7.80;;
15356;SDS011;7778;48.792;9.260;2022-12-18T00:27:49;17.13;;;8.87;;
15356;SDS011;7778;48.792;9.260;2022-12-18T00:30:36;6.80;;;4.27;;
15356;SDS011;7778;48.792;9.260;2022-12-18T00:33:21;21.30;;;9.97;;
15356;SDS011;7778;48.792;9.260;2022-12-18T00:36:08;16.47;;;8.93;;
15356;SDS011;7778;48.792;9.260;2022-12-18T00:38:58;10.40;;;6.30;;
15356;SDS011;7778;48.792;9.260;2022-12-18T00:41:45;13.10;;;7.80;;
15356;SDS011;7778;48.792;9.260;2022-12-18T00:44:48;11.67;;;7.67;;
15356;SDS011;7778;48.792;9.260;2022-12-18T00:47:35;15.93;;;8.10;;
15356;SDS011;7778;48.792;9.260;2022-12-18T00:50:21;29.87;;;11.80;;
15356;SDS011;7778;48.792;9.260;2022-12-18T00:53:08;18.97;;;8.47;;
15356;SDS011;7778;48.792;9.260;2022-12-18T00:55:54;18.63;;;8.47;;
15356;SDS011;7778;48.792;9.260;2022-12-18T00:58:40;13.87;;;8.17;;
15356;SDS011;7778;48.792;9.260;2022-12-18T01:01:25;12.43;;;7.27;;
15356;SDS011;7778;48.792;9.260;2022-12-18T01:04:12;23.23;;;11.93;;
15356;SDS011;7778;48.792;9.260;2022-12-18T01:06:58;31.40;;;11.80;;
15356;SDS011;7778;48.792;9.260;2022-12-18T01:09:43;14.83;;;8.10;;
15356;SDS011;7778;48.792;9.260;2022-12-18T01:12:29;5.13;;;2.90;;
15356;SDS011;7778;48.792;9.260;2022-12-18T01:15:15;22.80;;;12.50;;
15356;SDS011;7778;48.792;9.260;2022-12-18T01:18:02;16.97;;;8.77;;
15356;SDS011;7778;48.792;9.260;2022-12-18T01:20:50;7.80;;;5.87;;
15356;SDS011;7778;48.792;9.260;2022-12-18T01:23:36;13.47;;;6.63;;
15356;SDS011;7778;48.792;9.260;2022-12-18T01:26:23;20.97;;;9.83;;
15356;SDS011;7778;48.792;9.260;2022-12-18T01:29:13;17.50;;;7.63;;
15356;SDS011;7778;48.792;9.260;2022-12-18T01:31:58;12.43;;;3.83;;
15356;SDS011;7778;48.792;9.260;2022-12-18T01:34:44;10.63;;;8.13;;
15356;SDS011;7778;48.792;9.260;2022-12-18T01:37:31;16.87;;;10.20;;
15356;SDS011;7778;48.792;9.260;2022-12-18T01:40:17;22.47;;;11.73;;
15356;SDS011;7778;48.792;9.260;2022-12-18T01:43:03;16.03;;;7.83;;
15356;SDS011;7778;48.792;9.260;2022-12-18T01:45:48;11.33;;;5.20;;
15356;SDS011;7778;48.792;9.260;2022-12-18T01:48:34;10.43;;;5.97;;
15356;SDS011;7778;48.792;9.260;2022-12-18T01:51:19;28.47;;;10.03;;
15356;SDS011;7778;48.792;9.260;2022-12-18T01:54:07;22.97;;;5.13;;
15356;SDS011;7778;48.792;9.260;2022-12-18T01:56:52;19.63;;;7.70;;
15356;SDS011;7778;48.792;9.260;2022-12-18T01:59:38;32.73;;;10.50;;
15356;SDS011;7778;48.792;9.260;2022-12-18T02:02:28;3.23;;;3.00;;
15356;SDS011;7778;48.792;9.260;2022-12-18T02:05:16;18.20;;;5.70;;
15356;SDS011;7778;48.792;9.260;2022-12-18T02:08:15;26.40;;;10.97;;
15356;SDS011;7778;48.792;9.260;2022-12-18T02:11:08;20.70;;;10.53;;
15356;SDS011;7778;48.792;9.260;2022-12-18T02:14:04;17.03;;;7.37;;
15356;SDS011;7778;48.792;9.260;2022-12-18T02:17:03;13.07;;;6.20;;
15356;SDS011;7778;48.792;9.260;2022-12-18T02:19:58;17.10;;;5.53;;
15356;SDS011;7778;48.792;9.260;2022-12-18T02:23:01;4.80;;;4.30;;
15356;SDS011;7778;48.792;9.260;2022-12-18T02:26:04;15.27;;;7.17;;
15356;SDS011;7778;48.792;9.260;2022-12-18T02:29:00;7.80;;;6.07;;
15356;SDS011;7778;48.792;9.260;2022-12-18T02:31:50;25.57;;;13.67;;
15356;SDS011;7778;48.792;9.260;2022-12-18T02:34:40;11.33;;;7.90;;
15356;SDS011;7778;48.792;9.260;2022-12-18T02:37:26;19.23;;;8.40;;
15356;SDS011;7778;48.792;9.260;2022-12-18T02:40:14;21.10;;;10.73;;
15356;SDS011;7778;48.792;9.260;2022-12-18T02:43:06;26.40;;;12.17;;
15356;SDS011;7778;48.792;9.260;2022-12-18T02:45:53;20.27;;;8.70;;
15356;SDS011;7778;48.792;9.260;2022-12-18T02:48:43;17.60;;;9.17;;
15356;SDS011;7778;48.792;9.260;2022-12-18T02:51:29;29.93;;;9.27;;
15356;SDS011;7778;48.792;9.260;2022-12-18T02:54:33;6.70;;;4.13;;
15356;SDS011;7778;48.792;9.260;2022-12-18T02:57:33;7.47;;;4.63;;
15356;SDS011;7778;48.792;9.260;2022-12-18T03:00:28;25.17;;;5.93;;
15356;SDS011;7778;48.792;9.260;2022-12-18T03:03:19;10.33;;;6.50;;
15356;SDS011;7778;48.792;9.260;2022-12-18T03:06:10;25.77;;;8.83;;
15356;SDS011;7778;48.792;9.260;2022-12-18T03:09:04;8.43;;;5.23;;
15356;SDS011;7778;48.792;9.260;2022-12-18T03:11:54;11.10;;;7.03;;
15356;SDS011;7778;48.792;9.260;2022-12-18T03:15:04;10.90;;;6.27;;
15356;SDS011;7778;48.792;9.260;2022-12-18T03:17:56;28.97;;;12.00;;
15356;SDS011;7778;48.792;9.260;2022-12-18T03:20:47;20.43;;;10.60;;
15356;SDS011;7778;48.792;9.260;2022-12-18T03:23:40;19.97;;;8.80;;
15356;SDS011;7778;48.792;9.260;2022-12-18T03:26:29;8.37;;;4.73;;
15356;SDS011;7778;48.792;9.260;2022-12-18T03:29:17;16.87;;;9.10;;
15356;SDS011;7778;48.792;9.260;2022-12-18T03:32:09;5.27;;;2.37;;
15356;SDS011;7778;48.792;9.260;2022-12-18T03:35:02;25.13;;;6.50;;
15356;SDS011;7778;48.792;9.260;2022-12-18T03:37:50;3.00;;;2.73;;
15356;SDS011;7778;48.792;9.260;2022-12-18T03:40:39;5.73;;;2.20;;
15356;SDS011;7778;48.792;9.260;2022-12-18T03:43:36;13.23;;;5.40;;
15356;SDS011;7778;48.792;9.260;2022-12-18T03:46:33;16.67;;;8.73;;
15356;SDS011;7778;48.792;9.260;2022-12-18T03:49:27;13.47;;;6.23;;
15356;SDS011;7778;48.792;9.260;2022-12-18T03:52:22;10.13;;;6.23;;
15356;SDS011;7778;48.792;9.260;2022-12-18T03:55:12;15.13;;;7.73;;
15356;SDS011;7778;48.792;9.260;2022-12-18T03:57:58;10.87;;;6.53;;
15356;SDS011;7778;48.792;9.260;2022-12-18T04:00:44;22.23;;;9.60;;
15356;SDS011;7778;48.792;9.260;2022-12-18T04:03:33;29.30;;;13.97;;
15356;SDS011;7778;48.792;9.260;2022-12-18T04:06:20;16.30;;;8.63;;
15356;SDS011;7778;48.792;9.260;2022-12-18T04:09:08;14.27;;;7.53;;
15356;SDS011;7778;48.792;9.260;2022-12-18T04:11:54;22.17;;;9.50;;
15356;SDS011;7778;48.792;9.260;2022-12-18T04:14:40;8.17;;;4.80;;
15356;SDS011;7778;48.792;9.260;2022-12-18T04:17:25;18.07;;;10.07;;
15356;SDS011;7778;48.792;9.260;2022-12-18T04:20:11;31.87;;;11.20;;
15356;SDS011;7778;48.792;9.260;2022-12-18T04:22:56;21.33;;;9.30;;
15356;SDS011;7778;48.792;9.260;2022-12-18T04:25:43;27.73;;;10.60;;
15356;SDS011;7778;48.792;9.260;2022-12-18T04:28:29;20.03;;;9.10;;
15356;SDS011;7778;48.792;9.260;2022-12-18T04:31:14;23.27;;;9.97;;
15356;SDS011;7778;48.792;9.260;2022-12-18T04:34:00;23.73;;;10.83;;
15356;SDS011;7778;48.792;9.260;2022-12-18T04:36:46;23.90;;;11.17;;
15356;SDS011;7778;48.792;9.260;2022-12-18T04:39:31;28.57;;;9.70;;
15356;SDS011;7778;48.792;9.260;2022-12-18T04:42:18;17.97;;;8.00;;
15356;SDS011;7778;48.792;9.260;2022-12-18T04:45:04;21.20;;;10.13;;
15356;SDS011;7778;48.792;9.260;2022-12-18T04:47:51;17.73;;;6.30;;
15356;SDS011;7778;48.792;9.260;2022-12-18T04:50:37;17.37;;;8.37;;
15356;SDS011;7778;48.792;9.260;2022-12-18T04:53:23;17.97;;;10.43;;
15356;SDS011;7778;48.792;9.260;2022-12-18T04:56:10;22.77;;;9.37;;
15356;SDS011;7778;48.792;9.260;2022-12-18T04:58:58;25.27;;;9.33;;
15356;SDS011;7778;48.792;9.260;2022-12-18T05:01:44;20.17;;;8.53;;
15356;SDS011;7778;48.792;9.260;2022-12-18T05:04:30;15.00;;;5.17;;
15356;SDS011;7778;48.792;9.260;2022-12-18T05:07:15;10.13;;;5.80;;
15356;SDS011;7778;48.792;9.260;2022-12-18T05:10:01;19.80;;;8.27;;
15356;SDS011;7778;48.792;9.260;2022-12-18T05:12:50;33.03;;;12.90;;
15356;SDS011;7778;48.792;9.260;2022-12-18T05:15:50;18.33;;;7.13;;
15356;SDS011;7778;48.792;9.260;2022-12-18T05:18:37;22.80;;;8.40;;
15356;SDS011;7778;48.792;9.260;2022-12-18T05:21:23;22.00;;;9.90;;
15356;SDS011;7778;48.792;9.260;2022-12-18T05:24:08;28.33;;;11.47;;
15356;SDS011;7778;48.792;9.260;2022-12-18T05:26:54;17.53;;;6.23;;
15356;SDS011;7778;48.792;9.260;2022-12-18T05:29:39;13.17;;;6.77;;
15356;SDS011;7778;48.792;9.260;2022-12-18T05:32:26;21.10;;;7.83;;
15356;SDS011;7778;48.792;9.260;2022-12-18T05:35:12;16.37;;;9.90;;
15356;SDS011;7778;48.792;9.260;2022-12-18T05:37:57;8.00;;;4.73;;
15356;SDS011;7778;48.792;9.260;2022-12-18T05:40:43;30.17;;;9.47;;
15356;SDS011;7778;48.792;9.260;2022-12-18T05:43:29;12.33;;;8.57;;
15356;SDS011;7778;48.792;9.260;2022-12-18T05:46:16;18.80;;;10.23;;
15356;SDS011;7778;48.792;9.260;2022-12-18T05:49:03;11.70;;;8.10;;
15356;SDS011;7778;48.792;9.260;2022-12-18T05:51:49;14.20;;;7.10;;
15356;SDS011;7778;48.792;9.260;2022-12-18T05:54:34;16.73;;;8.60;;
15356;SDS011;7778;48.792;9.260;2022-12-18T05:57:20;18.77;;;7.20;;
15356;SDS011;7778;48.792;9.260;2022-12-18T06:00:06;27.77;;;11.03;;
15356;SDS011;7778;48.792;9.260;2022-12-18T06:02:53;21.00;;;7.20;;
15356;SDS011;7778;48.792;9.260;2022-12-18T06:05:41;20.67;;;9.50;;
15356;SDS011;7778;48.792;9.260;2022-12-18T06:08:29;15.10;;;7.23;;
15356;SDS011;7778;48.792;9.260;2022-12-18T06:11:16;18.93;;;9.73;;
15356;SDS011;7778;48.792;9.260;2022-12-18T06:14:03;17.67;;;7.60;;
15356;SDS011;7778;48.792;9.260;2022-12-18T06:16:50;16.83;;;6.20;;
15356;SDS011;7778;48.792;9.260;2022-12-18T06:19:36;23.30;;;9.50;;
15356;SDS011;7778;48.792;9.260;2022-12-18T06:22:23;11.90;;;5.77;;
15356;SDS011;7778;48.792;9.260;2022-12-18T06:25:09;28.17;;;8.10;;
15356;SDS011;7778;48.792;9.260;2022-12-18T06:27:55;24.03;;;9.00;;
15356;SDS011;7778;48.792;9.260;2022-12-18T06:30:42;35.20;;;12.57;;
15356;SDS011;7778;48.792;9.260;2022-12-18T06:33:28;14.10;;;7.07;;
15356;SDS011;7778;48.792;9.260;2022-12-18T06:36:14;22.90;;;9.77;;
15356;SDS011;7778;48.792;9.260;2022-12-18T06:39:01;15.30;;;7.77;;
15356;SDS011;7778;48.792;9.260;2022-12-18T06:41:47;9.60;;;5.37;;
15356;SDS011;7778;48.792;9.260;2022-12-18T06:44:33;12.77;;;5.10;;
15356;SDS011;7778;48.792;9.260;2022-12-18T06:47:18;27.13;;;9.30;;
15356;SDS011;7778;48.792;9.260;2022-12-18T06:50:04;26.83;;;9.07;;
15356;SDS011;7778;48.792;9.260;2022-12-18T06:52:51;24.30;;;6.20;;
15356;SDS011;7778;48.792;9.260;2022-12-18T06:55:38;11.87;;;6.37;;
15356;SDS011;7778;48.792;9.260;2022-12-18T06:58:23;38.77;;;8.60;;
15356;SDS011;7778;48.792;9.260;2022-12-18T07:01:10;19.67;;;10.73;;
15356;SDS011;7778;48.792;9.260;2022-12-18T07:03:56;14.50;;;5.83;;
15356;SDS011;7778;48.792;9.260;2022-12-18T07:06:42;11.47;;;7.13;;
15356;SDS011;7778;48.792;9.260;2022-12-18T07:09:28;15.23;;;8.17;;
15356;SDS011;7778;48.792;9.260;2022-12-18T07:12:15;15.43;;;8.63;;
15356;SDS011;7778;48.792;9.260;2022-12-18T07:15:01;34.13;;;10.10;;
15356;SDS011;7778;48.792;9.260;2022-12-18T07:17:48;15.27;;;7.00;;
15356;SDS011;7778;48.792;9.260;2022-12-18T07:20:34;23.03;;;8.60;;
15356;SDS011;7778;48.792;9.260;2022-12-18T07:23:19;20.87;;;8.63;;
15356;SDS011;7778;48.792;9.260;2022-12-18T07:26:06;11.87;;;6.77;;
15356;SDS011;7778;48.792;9.260;2022-12-18T07:28:56;21.80;;;9.07;;
15356;SDS011;7778;48.792;9.260;2022-12-18T07:31:48;13.70;;;8.43;;
15356;SDS011;7778;48.792;9.260;2022-12-18T07:34:34;21.80;;;9.67;;
15356;SDS011;7778;48.792;9.260;2022-12-18T07:37:19;17.50;;;8.47;;
15356;SDS011;7778;48.792;9.260;2022-12-18T07:40:06;9.73;;;6.03;;
15356;SDS011;7778;48.792;9.260;2022-12-18T07:42:54;15.63;;;7.40;;
15356;SDS011;7778;48.792;9.260;2022-12-18T07:45:41;19.07;;;9.33;;
15356;SDS011;7778;48.792;9.260;2022-12-18T07:48:27;16.10;;;7.83;;
15356;SDS011;7778;48.792;9.260;2022-12-18T07:51:13;24.43;;;7.50;;
15356;SDS011;7778;48.792;9.260;2022-12-18T07:53:59;15.27;;;5.80;;
15356;SDS011;7778;48.792;9.260;2022-12-18T07:56:45;14.00;;;9.27;;
15356;SDS011;7778;48.792;9.260;2022-12-18T07:59:30;17.53;;;10.13;;
15356;SDS011;7778;48.792;9.260;2022-12-18T08:02:17;23.83;;;9.40;;
15356;SDS011;7778;48.792;9.260;2022-12-18T08:05:03;25.10;;;8.47;;
15356;SDS011;7778;48.792;9.260;2022-12-18T08:07:49;15.53;;;8.07;;
15356;SDS011;7778;48.792;9.260;2022-12-18T08:10:35;12.13;;;5.77;;
15356;SDS011;7778;48.792;9.260;2022-12-18T08:13:20;11.90;;;5.93;;
15356;SDS011;7778;48.792;9.260;2022-12-18T08:16:06;21.47;;;10.10;;
15356;SDS011;7778;48.792;9.260;2022-12-18T08:18:54;23.07;;;10.23;;
15356;SDS011;7778;48.792;9.260;2022-12-18T08:21:39;13.07;;;6.57;;
15356;SDS011;7778;48.792;9.260;2022-12-18T08:24:26;9.73;;;6.90;;
15356;SDS011;7778;48.792;9.260;2022-12-18T08:27:12;18.03;;;8.53;;
15356;SDS011;7778;48.792;9.260;2022-12-18T08:29:57;18.33;;;8.77;;
15356;SDS011;7778;48.792;9.260;2022-12-18T08:32:43;19.53;;;6.93;;
15356;SDS011;7778;48.792;9.260;2022-12-18T08:35:30;25.97;;;11.07;;
15356;SDS011;7778;48.792;9.260;2022-12-18T08:38:19;19.60;;;9.53;;
15356;SDS011;7778;48.792;9.260;2022-12-18T08:41:07;12.40;;;6.33;;
15356;SDS011;7778;48.792;9.260;2022-12-18T08:43:54;24.40;;;10.77;;
15356;SDS011;7778;48.792;9.260;2022-12-18T08:46:58;13.80;;;5.93;;
15356;SDS011;7778;48.792;9.260;2022-12-18T08:49:43;19.97;;;9.07;;
15356;SDS011;7778;48.792;9.260;2022-12-18T08:52:32;18.80;;;11.00;;
15356;SDS011;7778;48.792;9.260;2022-12-18T08:55:18;20.13;;;10.63;;
15356;SDS011;7778;48.792;9.260;2022-12-18T08:58:03;15.73;;;8.73;;
15356;SDS011;7778;48.792;9.260;2022-12-18T09:00:49;23.00;;;9.97;;
15356;SDS011;7778;48.792;9.260;2022-12-18T09:03:35;23.00;;;7.70;;
15356;SDS011;7778;48.792;9.260;2022-12-18T09:06:21;27.97;;;13.03;;
15356;SDS011;7778;48.792;9.260;2022-12-18T09:09:10;20.97;;;9.20;;
15356;SDS011;7778;48.792;9.260;2022-12-18T09:11:56;16.20;;;7.53;;
15356;SDS011;7778;48.792;9.260;2022-12-18T09:14:41;33.60;;;12.17;;
15356;SDS011;7778;48.792;9.260;2022-12-18T09:17:27;22.33;;;8.17;;
15356;SDS011;7778;48.792;9.260;2022-12-18T09:20:12;26.73;;;10.33;;
15356;SDS011;7778;48.792;9.260;2022-12-18T09:22:58;19.67;;;10.40;;
15356;SDS011;7778;48.792;9.260;2022-12-18T09:25:45;25.93;;;10.73;;
15356;SDS011;7778;48.792;9.260;2022-12-18T09:28:31;26.10;;;11.37;;
15356;SDS011;7778;48.792;9.260;2022-12-18T09:31:17;26.43;;;11.20;;
15356;SDS011;7778;48.792;9.260;2022-12-18T09:34:06;33.00;;;14.33;;
15356;SDS011;7778;48.792;9.260;2022-12-18T09:36:52;21.67;;;9.90;;
15356;SDS011;7778;48.792;9.260;2022-12-18T09:39:38;23.80;;;11.13;;
15356;SDS011;7778;48.792;9.260;2022-12-18T09:42:25;28.57;;;13.70;;
15356;SDS011;7778;48.792;9.260;2022-12-18T09:45:11;30.97;;;12.03;;
15356;SDS011;7778;48.792;9.260;2022-12-18T09:48:03;30.00;;;12.80;;
15356;SDS011;7778;48.792;9.260;2022-12-18T09:50:50;36.70;;;13.87;;
15356;SDS011;7778;48.792;9.260;2022-12-18T09:53:40;35.90;;;14.17;;
15356;SDS011;7778;48.792;9.260;2022-12-18T09:56:31;27.43;;;11.97;;
15356;SDS011;7778;48.792;9.260;2022-12-18T09:59:24;37.30;;;14.83;;
15356;SDS011;7778;48.792;9.260;2022-12-18T10:02:17;29.17;;;11.77;;
15356;SDS011;7778;48.792;9.260;2022-12-18T10:05:10;34.55;;;14.63;;
15356;SDS011;7778;48.792;9.260;2022-12-18T10:08:04;27.60;;;14.45;;
15356;SDS011;7778;48.792;9.260;2022-12-18T10:10:55;32.35;;;13.48;;
15356;SDS011;7778;48.792;9.260;2022-12-18T10:13:47;25.27;;;13.40;;
15356;SDS011;7778;48.792;9.260;2022-12-18T10:16:41;27.35;;;10.63;;
15356;SDS011;7778;48.792;9.260;2022-12-18T10:19:40;28.27;;;12.20;;
15356;SDS011;7778;48.792;9.260;2022-12-18T10:22:39;30.98;;;14.32;;
15356;SDS011;7778;48.792;9.260;2022-12-18T10:25:37;31.35;;;13.50;;
15356;SDS011;7778;48.792;9.260;2022-12-18T10:28:39;32.65;;;13.23;;
15356;SDS011;7778;48.792;9.260;2022-12-18T10:31:27;29.92;;;14.23;;
15356;SDS011;7778;48.792;9.260;2022-12-18T10:34:18;23.50;;;12.95;;
15356;SDS011;7778;48.792;9.260;2022-12-18T10:37:06;36.35;;;12.63;;
15356;SDS011;7778;48.792;9.260;2022-12-18T10:40:06;26.27;;;12.57;;
15356;SDS011;7778;48.792;9.260;2022-12-18T10:43:05;26.90;;;12.73;;
15356;SDS011;7778;48.792;9.260;2022-12-18T10:46:03;32.13;;;13.85;;
15356;SDS011;7778;48.792;9.260;2022-12-18T10:49:02;36.03;;;15.05;;
15356;SDS011;7778;48.792;9.260;2022-12-18T10:51:50;32.25;;;14.25;;
15356;SDS011;7778;48.792;9.260;2022-12-18T10:54:49;33.95;;;14.80;;
15356;SDS011;7778;48.792;9.260;2022-12-18T10:57:37;25.30;;;13.35;;
15356;SDS011;7778;48.792;9.260;2022-12-18T11:00:26;31.17;;;13.38;;
15356;SDS011;7778;48.792;9.260;2022-12-18T11:03:28;27.42;;;13.15;;
15356;SDS011;7778;48.792;9.260;2022-12-18T11:06:20;30.17;;;14.13;;
15356;SDS011;7778;48.792;9.260;2022-12-18T11:09:20;25.75;;;13.07;;
15356;SDS011;7778;48.792;9.260;2022-12-18T11:12:14;31.08;;;12.60;;
15356;SDS011;7778;48.792;9.260;2022-12-18T11:15:05;23.83;;;11.77;;
15356;SDS011;7778;48.792;9.260;2022-12-18T11:18:00;28.45;;;12.35;;
15356;SDS011;7778;48.792;9.260;2022-12-18T11:20:50;38.45;;;15.02;;
15356;SDS011;7778;48.792;9.260;2022-12-18T11:23:44;32.95;;;14.10;;
15356;SDS011;7778;48.792;9.260;2022-12-18T11:26:37;34.70;;;15.07;;
15356;SDS011;7778;48.792;9.260;2022-12-18T11:29:28;30.55;;;13.93;;
15356;SDS011;7778;48.792;9.260;2022-12-18T11:32:24;29.55;;;13.30;;
15356;SDS011;7778;48.792;9.260;2022-12-18T11:35:23;35.17;;;14.38;;
15356;SDS011;7778;48.792;9.260;2022-12-18T11:38:21;29.70;;;13.68;;
15356;SDS011;7778;48.792;9.260;2022-12-18T11:41:13;31.15;;;14.25;;
15356;SDS011;7778;48.792;9.260;2022-12-18T11:44:07;18.55;;;10.88;;
15356;SDS011;7778;48.792;9.260;2022-12-18T11:46:59;30.73;;;13.10;;
15356;SDS011;7778;48.792;9.260;2022-12-18T11:49:49;31.75;;;13.63;;
15356;SDS011;7778;48.792;9.260;2022-12-18T11:52:36;27.33;;;11.98;;
15356;SDS011;7778;48.792;9.260;2022-12-18T11:55:27;31.55;;;13.85;;
15356;SDS011;7778;48.792;9.260;2022-12-18T11:58:25;31.48;;;13.18;;
15356;SDS011;7778;48.792;9.260;2022-12-18T12:01:30;37.08;;;15.73;;
15356;SDS011;7778;48.792;9.260;2022-12-18T12:04:33;28.80;;;12.73;;
15356;SDS011;7778;48.792;9.260;2022-12-18T12:07:35;40.60;;;15.45;;
15356;SDS011;7778;48.792;9.260;2022-12-18T12:10:32;32.05;;;13.98;;
15356;SDS011;7778;48.792;9.260;2022-12-18T12:13:31;33.15;;;14.57;;
15356;SDS011;7778;48.792;9.260;2022-12-18T12:16:33;28.80;;;13.90;;
15356;SDS011;7778;48.792;9.260;2022-12-18T12:19:28;34.88;;;15.52;;
15356;SDS011;7778;48.792;9.260;2022-12-18T12:22:28;36.35;;;15.38;;
15356;SDS011;7778;48.792;9.260;2022-12-18T12:25:25;34.90;;;15.77;;
15356;SDS011;7778;48.792;9.260;2022-12-18T12:28:22;34.80;;;14.98;;
15356;SDS011;7778;48.792;9.260;2022-12-18T12:31:30;31.92;;;14.80;;
15356;SDS011;7778;48.792;9.260;2022-12-18T12:34:31;31.27;;;13.35;;
15356;SDS011;7778;48.792;9.260;2022-12-18T12:37:26;37.28;;;15.55;;
15356;SDS011;7778;48.792;9.260;2022-12-18T12:40:24;34.25;;;15.38;;
15356;SDS011;7778;48.792;9.260;2022-12-18T12:46:20;31.92;;;14.77;;
15356;SDS011;7778;48.792;9.260;2022-12-18T12:49:09;31.17;;;14.73;;
15356;SDS011;7778;48.792;9.260;2022-12-18T12:52:03;39.17;;;16.52;;
15356;SDS011;7778;48.792;9.260;2022-12-18T12:54:52;38.90;;;15.88;;
15356;SDS011;7778;48.792;9.260;2022-12-18T12:57:40;34.22;;;14.10;;
15356;SDS011;7778;48.792;9.260;2022-12-18T13:00:31;33.38;;;13.07;;
15356;SDS011;7778;48.792;9.260;2022-12-18T13:03:29;31.83;;;15.32;;
15356;SDS011;7778;48.792;9.260;2022-12-18T13:06:33;31.80;;;14.50;;
15356;SDS011;7778;48.792;9.260;2022-12-18T13:09:29;32.75;;;14.23;;
15356;SDS011;7778;48.792;9.260;2022-12-18T13:12:16;28.73;;;13.30;;
15356;SDS011;7778;48.792;9.260;2022-12-18T13:15:20;39.30;;;15.52;;
15356;SDS011;7778;48.792;9.260;2022-12-18T13:18:15;31.65;;;13.40;;
15356;SDS011;7778;48.792;9.260;2022-12-18T13:21:07;36.50;;;15.75;;
15356;SDS011;7778;48.792;9.260;2022-12-18T13:24:15;35.58;;;14.50;;
15356;SDS011;7778;48.792;9.260;2022-12-18T13:30:44;39.40;;;15.52;;
15356;SDS011;7778;48.792;9.260;2022-12-18T13:33:48;36.05;;;15.20;;
15356;SDS011;7778;48.792;9.260;2022-12-18T13:36:33;31.42;;;13.80;;
15356;SDS011;7778;48.792;9.260;2022-12-18T13:39:26;33.97;;;15.75;;
15356;SDS011;7778;48.792;9.260;2022-12-18T13:45:45;38.60;;;17.25;;
15356;SDS011;7778;48.792;9.260;2022-12-18T13:48:36;42.33;;;16.63;;
15356;SDS011;7778;48.792;9.260;2022-12-18T13:51:24;33.33;;;14.45;;
15356;SDS011;7778;48.792;9.260;2022-12-18T13:54:13;42.58;;;16.70;;
15356;SDS011;7778;48.792;9.260;2022-12-18T13:57:25;37.75;;;15.90;;
15356;SDS011;7778;48.792;9.260;2022-12-18T14:00:19;40.42;;;15.35;;
15356;SDS011;7778;48.792;9.260;2022-12-18T14:03:20;36.63;;;15.60;;
15356;SDS011;7778;48.792;9.260;2022-12-18T14:06:10;34.80;;;15.98;;
15356;SDS011;7778;48.792;9.260;2022-12-18T14:08:58;35.75;;;15.45;;
15356;SDS011;7778;48.792;9.260;2022-12-18T14:11:47;42.55;;;17.20;;
15356;SDS011;7778;48.792;9.260;2022-12-18T14:14:35;46.00;;;17.10;;
15356;SDS011;7778;48.792;9.260;2022-12-18T14:17:21;31.75;;;15.52;;
15356;SDS011;7778;48.792;9.260;2022-12-18T14:20:12;35.13;;;15.52;;
15356;SDS011;7778;48.792;9.260;2022-12-18T14:22:59;38.17;;;15.25;;
15356;SDS011;7778;48.792;9.260;2022-12-18T14:25:47;39.90;;;16.33;;
15356;SDS011;7778;48.792;9.260;2022-12-18T14:28:32;38.13;;;18.17;;
15356;SDS011;7778;48.792;9.260;2022-12-18T14:31:20;27.52;;;13.77;;
15356;SDS011;7778;48.792;9.260;2022-12-18T14:34:14;39.92;;;16.27;;
15356;SDS011;7778;48.792;9.260;2022-12-18T14:37:00;33.97;;;15.25;;
15356;SDS011;7778;48.792;9.260;2022-12-18T14:39:53;38.38;;;15.02;;
15356;SDS011;7778;48.792;9.260;2022-12-18T14:42:41;36.10;;;15.15;;
15356;SDS011;7778;48.792;9.260;2022-12-18T14:45:32;29.05;;;13.52;;
15356;SDS011;7778;48.792;9.260;2022-12-18T14:48:30;38.65;;;16.38;;
15356;SDS011;7778;48.792;9.260;2022-12-18T14:51:22;33.90;;;15.20;;
15356;SDS011;7778;48.792;9.260;2022-12-18T14:54:14;38.05;;;14.98;;
15356;SDS011;7778;48.792;9.260;2022-12-18T14:57:03;36.58;;;15.77;;
15356;SDS011;7778;48.792;9.260;2022-12-18T15:00:03;41.40;;;16.60;;
15356;SDS011;7778;48.792;9.260;2022-12-18T15:02:51;37.30;;;13.50;;
15356;SDS011;7778;48.792;9.260;2022-12-18T15:05:41;38.08;;;15.00;;
15356;SDS011;7778;48.792;9.260;2022-12-18T15:08:28;34.30;;;15.13;;
15356;SDS011;7778;48.792;9.260;2022-12-18T15:11:33;37.30;;;16.30;;
15356;SDS011;7778;48.792;9.260;2022-12-18T15:14:32;37.67;;;15.80;;
15356;SDS011;7778;48.792;9.260;2022-12-18T15:17:23;36.73;;;15.30;;
15356;SDS011;7778;48.792;9.260;2022-12-18T15:20:10;44.13;;;16.95;;
15356;SDS011;7778;48.792;9.260;2022-12-18T15:22:57;40.22;;;16.75;;
15356;SDS011;7778;48.792;9.260;2022-12-18T15:25:43;44.20;;;17.70;;
15356;SDS011;7778;48.792;9.260;2022-12-18T15:28:31;41.45;;;15.98;;
15356;SDS011;7778;48.792;9.260;2022-12-18T15:31:22;44.03;;;18.92;;
15356;SDS011;7778;48.792;9.260;2022-12-18T15:34:14;48.25;;;18.75;;
15356;SDS011;7778;48.792;9.260;2022-12-18T15:37:06;36.50;;;16.95;;
15356;SDS011;7778;48.792;9.260;2022-12-18T15:39:55;40.70;;;17.23;;
15356;SDS011;7778;48.792;9.260;2022-12-18T15:42:40;46.00;;;17.90;;
15356;SDS011;7778;48.792;9.260;2022-12-18T15:45:44;36.97;;;14.75;;
15356;SDS011;7778;48.792;9.260;2022-12-18T15:48:31;37.90;;;15.77;;
15356;SDS011;7778;48.792;9.260;2022-12-18T15:51:19;34.83;;;14.18;;
15356;SDS011;7778;48.792;9.260;2022-12-18T15:54:09;39.65;;;16.10;;
15356;SDS011;7778;48.792;9.260;2022-12-18T15:57:00;39.63;;;15.57;;
15356;SDS011;7778;48.792;9.260;2022-12-18T16:00:04;29.67;;;13.13;;
15356;SDS011;7778;48.792;9.260;2022-12-18T16:02:53;40.65;;;15.75;;
15356;SDS011;7778;48.792;9.260;2022-12-18T16:05:38;34.97;;;15.63;;
15356;SDS011;7778;48.792;9.260;2022-12-18T16:08:24;39.88;;;17.40;;
15356;SDS011;7778;48.792;9.260;2022-12-18T16:11:11;39.28;;;16.15;;
15356;SDS011;7778;48.792;9.260;2022-12-18T16:14:23;39.55;;;14.77;;
15356;SDS011;7778;48.792;9.260;2022-12-18T16:17:11;37.90;;;15.25;;
15356;SDS011;7778;48.792;9.260;2022-12-18T16:19:58;34.28;;;13.90;;
15356;SDS011;7778;48.792;9.260;2022-12-18T16:22:44;37.33;;;16.47;;
15356;SDS011;7778;48.792;9.260;2022-12-18T16:25:33;45.38;;;19.35;;
15356;SDS011;7778;48.792;9.260;2022-12-18T16:28:19;48.33;;;19.88;;
15356;SDS011;7778;48.792;9.260;2022-12-18T16:31:06;62.83;;;19.37;;
15356;SDS011;7778;48.792;9.260;2022-12-18T16:34:15;41.53;;;16.55;;
15356;SDS011;7778;48.792;9.260;2022-12-18T16:37:06;38.97;;;15.32;;
15356;SDS011;7778;48.792;9.260;2022-12-18T16:39:54;33.10;;;15.73;;
15356;SDS011;7778;48.792;9.260;2022-12-18T16:42:40;34.88;;;16.05;;
15356;SDS011;7778;48.792;9.260;2022-12-18T16:45:27;39.95;;;15.23;;
15356;SDS011;7778;48.792;9.260;2022-12-18T16:48:17;38.23;;;15.20;;
15356;SDS011;7778;48.792;9.260;2022-12-18T16:51:04;35.08;;;15.68;;
15356;SDS011;7778;48.792;9.260;2022-12-18T16:53:50;32.92;;;16.83;;
15356;SDS011;7778;48.792;9.260;2022-12-18T16:56:35;29.42;;;14.13;;
15356;SDS011;7778;48.792;9.260;2022-12-18T16:59:21;44.77;;;15.77;;
15356;SDS011;7778;48.792;9.260;2022-12-18T17:02:10;37.42;;;15.63;;
15356;SDS011;7778;48.792;9.260;2022-12-18T17:05:00;35.13;;;15.35;;